sensor_id;sensor_type;location;lat;lon;timestamp;P1;durP1;ratioP1;P2;durP2;ratioP2
36691;SDS011;22678;52.052;4.242;2023-02-28T00:00:41;4.63;;;0.90;;
36691;SDS011;22678;52.052;4.242;2023-02-28T00:03:06;3.23;;;0.77;;
36691;SDS011;22678;52.052;4.242;2023-02-28T00:05:32;1.80;;;0.67;;
36691;SDS011;22678;52.052;4.242;2023-02-28T00:07:57;6.67;;;1.20;;
36691;SDS011;22678;52.052;4.242;2023-02-28T00:10:24;7.83;;;1.83;;
36691;SDS011;22678;52.052;4.242;2023-02-28T00:12:51;3.23;;;1.47;;
36691;SDS011;22678;52.052;4.242;2023-02-28T00:15:18;2.50;;;1.43;;
36691;SDS011;22678;52.052;4.242;2023-02-28T00:17:44;4.43;;;1.20;;
36691;SDS011;22678;52.052;4.242;2023-02-28T00:20:09;5.23;;;0.93;;
36691;SDS011;22678;52.052;4.242;2023-02-28T00:22:40;5.00;;;1.00;;
36691;SDS011;22678;52.052;4.242;2023-02-28T00:25:08;3.40;;;1.03;;
36691;SDS011;22678;52.052;4.242;2023-02-28T00:27:35;1.90;;;0.60;;
36691;SDS011;22678;52.052;4.242;2023-02-28T00:30:01;3.17;;;1.77;;
36691;SDS011;22678;52.052;4.242;2023-02-28T00:32:27;4.00;;;0.90;;
36691;SDS011;22678;52.052;4.242;2023-02-28T00:34:52;3.97;;;1.00;;
36691;SDS011;22678;52.052;4.242;2023-02-28T00:37:17;6.57;;;1.13;;
36691;SDS011;22678;52.052;4.242;2023-02-28T00:39:43;1.93;;;0.70;;
36691;SDS011;22678;52.052;4.242;2023-02-28T00:42:08;4.60;;;0.97;;
36691;SDS011;22678;52.052;4.242;2023-02-28T00:44:34;3.77;;;1.70;;
36691;SDS011;22678;52.052;4.242;2023-02-28T00:46:59;2.43;;;1.00;;
36691;SDS011;22678;52.052;4.242;2023-02-28T00:49:28;9.17;;;1.83;;
36691;SDS011;22678;52.052;4.242;2023-02-28T00:51:55;8.80;;;1.50;;
36691;SDS011;22678;52.052;4.242;2023-02-28T00:54:22;4.03;;;1.77;;
36691;SDS011;22678;52.052;4.242;2023-02-28T00:56:49;2.90;;;0.90;;
36691;SDS011;22678;52.052;4.242;2023-02-28T00:59:15;5.33;;;1.10;;
36691;SDS011;22678;52.052;4.242;2023-02-28T01:01:42;7.10;;;1.50;;
36691;SDS011;22678;52.052;4.242;2023-02-28T01:04:09;5.83;;;1.27;;
36691;SDS011;22678;52.052;4.242;2023-02-28T01:06:35;4.53;;;0.97;;
36691;SDS011;22678;52.052;4.242;2023-02-28T01:09:01;2.60;;;1.73;;
36691;SDS011;22678;52.052;4.242;2023-02-28T01:11:27;4.63;;;1.23;;
36691;SDS011;22678;52.052;4.242;2023-02-28T01:13:52;2.80;;;0.73;;
36691;SDS011;22678;52.052;4.242;2023-02-28T01:16:18;4.30;;;1.07;;
36691;SDS011;22678;52.052;4.242;2023-02-28T01:18:43;5.70;;;0.93;;
36691;SDS011;22678;52.052;4.242;2023-02-28T01:21:11;3.70;;;1.03;;
36691;SDS011;22678;52.052;4.242;2023-02-28T01:23:39;7.57;;;1.10;;
36691;SDS011;22678;52.052;4.242;2023-02-28T01:26:06;2.67;;;1.27;;
36691;SDS011;22678;52.052;4.242;2023-02-28T01:28:35;5.17;;;1.43;;
36691;SDS011;22678;52.052;4.242;2023-02-28T01:31:02;5.67;;;1.53;;
36691;SDS011;22678;52.052;4.242;2023-02-28T01:33:27;3.63;;;1.50;;
36691;SDS011;22678;52.052;4.242;2023-02-28T01:36:00;3.30;;;1.50;;
36691;SDS011;22678;52.052;4.242;2023-02-28T01:38:26;2.77;;;1.43;;
36691;SDS011;22678;52.052;4.242;2023-02-28T01:40:52;8.77;;;1.40;;
36691;SDS011;22678;52.052;4.242;2023-02-28T01:45:54;2.87;;;1.10;;
36691;SDS011;22678;52.052;4.242;2023-02-28T01:48:22;6.03;;;1.40;;
36691;SDS011;22678;52.052;4.242;2023-02-28T01:50:52;5.60;;;1.77;;
36691;SDS011;22678;52.052;4.242;2023-02-28T01:53:21;3.97;;;1.70;;
36691;SDS011;22678;52.052;4.242;2023-02-28T01:55:51;3.00;;;1.20;;
36691;SDS011;22678;52.052;4.242;2023-02-28T01:58:19;3.83;;;0.70;;
36691;SDS011;22678;52.052;4.242;2023-02-28T02:00:45;7.80;;;1.97;;
36691;SDS011;22678;52.052;4.242;2023-02-28T02:03:12;12.23;;;2.33;;
36691;SDS011;22678;52.052;4.242;2023-02-28T02:05:40;3.73;;;1.27;;
36691;SDS011;22678;52.052;4.242;2023-02-28T02:08:12;4.80;;;1.83;;
36691;SDS011;22678;52.052;4.242;2023-02-28T02:10:51;1.97;;;0.93;;
36691;SDS011;22678;52.052;4.242;2023-02-28T02:15:58;5.93;;;1.87;;
36691;SDS011;22678;52.052;4.242;2023-02-28T02:35:07;5.90;;;2.23;;
36691;SDS011;22678;52.052;4.242;2023-02-28T02:38:32;5.00;;;1.37;;
36691;SDS011;22678;52.052;4.242;2023-02-28T02:40:42;2.67;;;0.93;;
36691;SDS011;22678;52.052;4.242;2023-02-28T02:46:27;4.57;;;1.60;;
36691;SDS011;22678;52.052;4.242;2023-02-28T02:49:02;4.57;;;1.17;;
36691;SDS011;22678;52.052;4.242;2023-02-28T02:51:33;8.43;;;2.13;;
36691;SDS011;22678;52.052;4.242;2023-02-28T02:56:40;8.37;;;1.37;;
36691;SDS011;22678;52.052;4.242;2023-02-28T02:59:09;5.73;;;2.27;;
36691;SDS011;22678;52.052;4.242;2023-02-28T03:01:38;4.63;;;2.03;;
36691;SDS011;22678;52.052;4.242;2023-02-28T03:04:07;4.50;;;1.20;;
36691;SDS011;22678;52.052;4.242;2023-02-28T03:06:35;9.17;;;2.43;;
36691;SDS011;22678;52.052;4.242;2023-02-28T03:09:01;6.53;;;1.33;;
36691;SDS011;22678;52.052;4.242;2023-02-28T03:11:27;7.30;;;1.97;;
36691;SDS011;22678;52.052;4.242;2023-02-28T03:16:54;5.33;;;1.70;;
36691;SDS011;22678;52.052;4.242;2023-02-28T03:19:34;4.13;;;1.90;;
36691;SDS011;22678;52.052;4.242;2023-02-28T03:22:32;6.00;;;1.83;;
36691;SDS011;22678;52.052;4.242;2023-02-28T03:28:03;3.47;;;1.23;;
36691;SDS011;22678;52.052;4.242;2023-02-28T03:30:45;6.00;;;1.93;;
36691;SDS011;22678;52.052;4.242;2023-02-28T03:33:17;6.63;;;1.77;;
36691;SDS011;22678;52.052;4.242;2023-02-28T03:35:47;8.57;;;1.63;;
36691;SDS011;22678;52.052;4.242;2023-02-28T03:38:37;10.47;;;4.00;;
36691;SDS011;22678;52.052;4.242;2023-02-28T03:41:17;6.73;;;1.93;;
36691;SDS011;22678;52.052;4.242;2023-02-28T03:43:50;6.13;;;2.40;;
36691;SDS011;22678;52.052;4.242;2023-02-28T03:46:21;5.53;;;2.87;;
36691;SDS011;22678;52.052;4.242;2023-02-28T03:48:55;4.90;;;1.40;;
36691;SDS011;22678;52.052;4.242;2023-02-28T03:51:27;5.47;;;1.77;;
36691;SDS011;22678;52.052;4.242;2023-02-28T03:53:56;10.50;;;3.73;;
36691;SDS011;22678;52.052;4.242;2023-02-28T03:56:48;7.07;;;2.13;;
36691;SDS011;22678;52.052;4.242;2023-02-28T04:01:58;6.07;;;2.63;;
36691;SDS011;22678;52.052;4.242;2023-02-28T04:04:24;5.87;;;2.07;;
36691;SDS011;22678;52.052;4.242;2023-02-28T04:06:50;7.37;;;2.47;;
36691;SDS011;22678;52.052;4.242;2023-02-28T04:09:17;5.17;;;2.23;;
36691;SDS011;22678;52.052;4.242;2023-02-28T04:11:48;6.20;;;2.33;;
36691;SDS011;22678;52.052;4.242;2023-02-28T04:14:18;5.40;;;2.00;;
36691;SDS011;22678;52.052;4.242;2023-02-28T04:16:44;8.37;;;3.17;;
36691;SDS011;22678;52.052;4.242;2023-02-28T04:19:11;5.60;;;2.23;;
36691;SDS011;22678;52.052;4.242;2023-02-28T04:21:44;6.83;;;3.67;;
36691;SDS011;22678;52.052;4.242;2023-02-28T04:24:12;6.17;;;2.07;;
36691;SDS011;22678;52.052;4.242;2023-02-28T04:26:40;5.63;;;2.23;;
36691;SDS011;22678;52.052;4.242;2023-02-28T04:29:08;4.87;;;2.33;;
36691;SDS011;22678;52.052;4.242;2023-02-28T04:31:35;8.27;;;2.53;;
36691;SDS011;22678;52.052;4.242;2023-02-28T04:34:00;6.23;;;1.70;;
36691;SDS011;22678;52.052;4.242;2023-02-28T04:36:25;12.53;;;3.17;;
36691;SDS011;22678;52.052;4.242;2023-02-28T04:38:51;13.37;;;2.23;;
36691;SDS011;22678;52.052;4.242;2023-02-28T04:41:16;8.10;;;3.77;;
36691;SDS011;22678;52.052;4.242;2023-02-28T04:43:42;6.33;;;2.50;;
36691;SDS011;22678;52.052;4.242;2023-02-28T04:46:08;6.93;;;3.17;;
36691;SDS011;22678;52.052;4.242;2023-02-28T04:48:36;6.07;;;2.67;;
36691;SDS011;22678;52.052;4.242;2023-02-28T04:51:04;8.80;;;3.20;;
36691;SDS011;22678;52.052;4.242;2023-02-28T04:53:31;8.00;;;3.63;;
36691;SDS011;22678;52.052;4.242;2023-02-28T04:55:57;8.93;;;3.43;;
36691;SDS011;22678;52.052;4.242;2023-02-28T04:58:23;6.60;;;2.67;;
36691;SDS011;22678;52.052;4.242;2023-02-28T05:00:49;12.40;;;5.63;;
36691;SDS011;22678;52.052;4.242;2023-02-28T05:03:15;4.30;;;2.60;;
36691;SDS011;22678;52.052;4.242;2023-02-28T05:05:41;14.00;;;4.03;;
36691;SDS011;22678;52.052;4.242;2023-02-28T05:08:06;6.10;;;2.57;;
36691;SDS011;22678;52.052;4.242;2023-02-28T05:10:31;8.00;;;3.40;;
36691;SDS011;22678;52.052;4.242;2023-02-28T05:12:57;6.37;;;2.50;;
36691;SDS011;22678;52.052;4.242;2023-02-28T05:15:23;9.70;;;4.10;;
36691;SDS011;22678;52.052;4.242;2023-02-28T05:17:49;10.43;;;3.27;;
36691;SDS011;22678;52.052;4.242;2023-02-28T05:20:15;8.37;;;4.13;;
36691;SDS011;22678;52.052;4.242;2023-02-28T05:22:40;8.23;;;3.83;;
36691;SDS011;22678;52.052;4.242;2023-02-28T05:25:06;13.73;;;3.80;;
36691;SDS011;22678;52.052;4.242;2023-02-28T05:27:37;9.43;;;3.93;;
36691;SDS011;22678;52.052;4.242;2023-02-28T05:30:02;8.60;;;3.50;;
36691;SDS011;22678;52.052;4.242;2023-02-28T05:32:29;10.50;;;3.53;;
36691;SDS011;22678;52.052;4.242;2023-02-28T05:34:54;9.13;;;3.83;;
36691;SDS011;22678;52.052;4.242;2023-02-28T05:37:20;8.70;;;2.73;;
36691;SDS011;22678;52.052;4.242;2023-02-28T05:39:45;8.50;;;3.73;;
36691;SDS011;22678;52.052;4.242;2023-02-28T05:42:11;7.50;;;3.53;;
36691;SDS011;22678;52.052;4.242;2023-02-28T05:44:36;9.60;;;3.93;;
36691;SDS011;22678;52.052;4.242;2023-02-28T05:47:02;11.83;;;3.13;;
36691;SDS011;22678;52.052;4.242;2023-02-28T05:49:27;5.17;;;2.00;;
36691;SDS011;22678;52.052;4.242;2023-02-28T05:51:53;11.47;;;3.83;;
36691;SDS011;22678;52.052;4.242;2023-02-28T05:54:18;7.00;;;3.17;;
36691;SDS011;22678;52.052;4.242;2023-02-28T05:56:43;6.93;;;2.80;;
36691;SDS011;22678;52.052;4.242;2023-02-28T05:59:10;6.10;;;3.30;;
36691;SDS011;22678;52.052;4.242;2023-02-28T06:01:38;5.37;;;3.13;;
36691;SDS011;22678;52.052;4.242;2023-02-28T06:04:13;7.33;;;4.13;;
36691;SDS011;22678;52.052;4.242;2023-02-28T06:06:43;8.80;;;3.87;;
36691;SDS011;22678;52.052;4.242;2023-02-28T06:09:09;8.60;;;4.17;;
36691;SDS011;22678;52.052;4.242;2023-02-28T06:11:35;12.87;;;4.37;;
36691;SDS011;22678;52.052;4.242;2023-02-28T06:14:00;8.33;;;3.53;;
36691;SDS011;22678;52.052;4.242;2023-02-28T06:16:27;8.50;;;4.73;;
36691;SDS011;22678;52.052;4.242;2023-02-28T06:18:54;12.47;;;4.03;;
36691;SDS011;22678;52.052;4.242;2023-02-28T06:21:22;8.57;;;4.47;;
36691;SDS011;22678;52.052;4.242;2023-02-28T06:23:47;7.27;;;4.53;;
36691;SDS011;22678;52.052;4.242;2023-02-28T06:26:13;9.50;;;5.23;;
36691;SDS011;22678;52.052;4.242;2023-02-28T06:28:38;8.40;;;4.13;;
36691;SDS011;22678;52.052;4.242;2023-02-28T06:31:11;11.57;;;4.70;;
36691;SDS011;22678;52.052;4.242;2023-02-28T06:33:38;9.70;;;4.13;;
36691;SDS011;22678;52.052;4.242;2023-02-28T06:36:05;13.17;;;6.30;;
36691;SDS011;22678;52.052;4.242;2023-02-28T06:38:32;8.20;;;3.70;;
36691;SDS011;22678;52.052;4.242;2023-02-28T06:40:58;7.87;;;4.60;;
36691;SDS011;22678;52.052;4.242;2023-02-28T06:43:25;9.23;;;4.43;;
36691;SDS011;22678;52.052;4.242;2023-02-28T06:45:57;11.37;;;4.60;;
36691;SDS011;22678;52.052;4.242;2023-02-28T06:48:24;9.33;;;4.70;;
36691;SDS011;22678;52.052;4.242;2023-02-28T06:50:50;8.97;;;4.40;;
36691;SDS011;22678;52.052;4.242;2023-02-28T06:53:15;6.07;;;3.93;;
36691;SDS011;22678;52.052;4.242;2023-02-28T06:55:41;10.17;;;3.90;;
36691;SDS011;22678;52.052;4.242;2023-02-28T06:58:06;10.73;;;5.97;;
36691;SDS011;22678;52.052;4.242;2023-02-28T07:00:44;13.83;;;4.80;;
36691;SDS011;22678;52.052;4.242;2023-02-28T07:03:10;13.90;;;4.47;;
36691;SDS011;22678;52.052;4.242;2023-02-28T07:05:37;9.03;;;3.90;;
36691;SDS011;22678;52.052;4.242;2023-02-28T07:08:03;8.40;;;4.33;;
36691;SDS011;22678;52.052;4.242;2023-02-28T07:10:30;9.53;;;4.37;;
36691;SDS011;22678;52.052;4.242;2023-02-28T07:12:56;16.20;;;5.50;;
36691;SDS011;22678;52.052;4.242;2023-02-28T07:15:21;10.50;;;6.50;;
36691;SDS011;22678;52.052;4.242;2023-02-28T07:17:47;9.20;;;4.53;;
36691;SDS011;22678;52.052;4.242;2023-02-28T07:20:12;10.53;;;4.97;;
36691;SDS011;22678;52.052;4.242;2023-02-28T07:22:37;10.33;;;4.50;;
36691;SDS011;22678;52.052;4.242;2023-02-28T07:25:03;10.43;;;4.70;;
36691;SDS011;22678;52.052;4.242;2023-02-28T07:27:29;15.73;;;4.33;;
36691;SDS011;22678;52.052;4.242;2023-02-28T07:29:55;26.37;;;5.37;;
36691;SDS011;22678;52.052;4.242;2023-02-28T07:32:21;9.57;;;4.70;;
36691;SDS011;22678;52.052;4.242;2023-02-28T07:34:47;10.10;;;5.27;;
36691;SDS011;22678;52.052;4.242;2023-02-28T07:37:12;11.40;;;5.33;;
36691;SDS011;22678;52.052;4.242;2023-02-28T07:39:37;14.37;;;5.67;;
36691;SDS011;22678;52.052;4.242;2023-02-28T07:42:06;9.70;;;5.53;;
36691;SDS011;22678;52.052;4.242;2023-02-28T07:44:35;6.40;;;4.28;;
36691;SDS011;22678;52.052;4.242;2023-02-28T07:47:05;7.87;;;4.43;;
36691;SDS011;22678;52.052;4.242;2023-02-28T07:49:31;10.63;;;4.37;;
36691;SDS011;22678;52.052;4.242;2023-02-28T07:51:57;10.83;;;5.53;;
36691;SDS011;22678;52.052;4.242;2023-02-28T07:54:22;7.77;;;3.77;;
36691;SDS011;22678;52.052;4.242;2023-02-28T07:56:47;10.90;;;4.53;;
36691;SDS011;22678;52.052;4.242;2023-02-28T07:59:12;5.70;;;3.53;;
36691;SDS011;22678;52.052;4.242;2023-02-28T08:01:38;9.77;;;4.13;;
36691;SDS011;22678;52.052;4.242;2023-02-28T08:04:03;7.13;;;2.60;;
36691;SDS011;22678;52.052;4.242;2023-02-28T08:06:28;7.13;;;2.97;;
36691;SDS011;22678;52.052;4.242;2023-02-28T08:08:54;4.20;;;2.77;;
36691;SDS011;22678;52.052;4.242;2023-02-28T08:11:21;6.40;;;3.03;;
36691;SDS011;22678;52.052;4.242;2023-02-28T08:13:46;6.37;;;2.47;;
36691;SDS011;22678;52.052;4.242;2023-02-28T08:16:12;6.77;;;3.00;;
36691;SDS011;22678;52.052;4.242;2023-02-28T08:18:46;7.07;;;2.60;;
36691;SDS011;22678;52.052;4.242;2023-02-28T08:21:11;4.63;;;2.80;;
36691;SDS011;22678;52.052;4.242;2023-02-28T08:23:36;4.03;;;2.07;;
36691;SDS011;22678;52.052;4.242;2023-02-28T08:26:02;7.43;;;2.27;;
36691;SDS011;22678;52.052;4.242;2023-02-28T08:28:28;5.73;;;2.63;;
36691;SDS011;22678;52.052;4.242;2023-02-28T08:30:54;6.60;;;2.80;;
36691;SDS011;22678;52.052;4.242;2023-02-28T08:33:19;9.83;;;4.13;;
36691;SDS011;22678;52.052;4.242;2023-02-28T08:35:45;8.63;;;2.67;;
36691;SDS011;22678;52.052;4.242;2023-02-28T08:38:10;5.10;;;2.03;;
36691;SDS011;22678;52.052;4.242;2023-02-28T08:40:35;4.73;;;1.67;;
36691;SDS011;22678;52.052;4.242;2023-02-28T08:43:01;6.17;;;4.27;;
36691;SDS011;22678;52.052;4.242;2023-02-28T08:45:26;8.40;;;3.60;;
36691;SDS011;22678;52.052;4.242;2023-02-28T08:47:51;6.57;;;2.60;;
36691;SDS011;22678;52.052;4.242;2023-02-28T08:50:19;3.77;;;2.20;;
36691;SDS011;22678;52.052;4.242;2023-02-28T08:52:44;4.33;;;2.23;;
36691;SDS011;22678;52.052;4.242;2023-02-28T08:55:10;6.20;;;2.40;;
36691;SDS011;22678;52.052;4.242;2023-02-28T08:57:35;4.70;;;2.40;;
36691;SDS011;22678;52.052;4.242;2023-02-28T09:00:01;7.90;;;2.93;;
36691;SDS011;22678;52.052;4.242;2023-02-28T09:02:31;9.17;;;3.43;;
36691;SDS011;22678;52.052;4.242;2023-02-28T09:04:57;8.33;;;3.50;;
36691;SDS011;22678;52.052;4.242;2023-02-28T09:07:23;6.33;;;2.60;;
36691;SDS011;22678;52.052;4.242;2023-02-28T09:09:48;6.30;;;2.80;;
36691;SDS011;22678;52.052;4.242;2023-02-28T09:12:26;9.57;;;2.50;;
36691;SDS011;22678;52.052;4.242;2023-02-28T09:14:52;14.17;;;3.20;;
36691;SDS011;22678;52.052;4.242;2023-02-28T09:17:18;5.77;;;3.33;;
36691;SDS011;22678;52.052;4.242;2023-02-28T09:19:44;5.87;;;3.83;;
36691;SDS011;22678;52.052;4.242;2023-02-28T09:22:10;8.23;;;2.87;;
36691;SDS011;22678;52.052;4.242;2023-02-28T09:24:36;7.57;;;2.97;;
36691;SDS011;22678;52.052;4.242;2023-02-28T09:27:02;8.67;;;3.23;;
36691;SDS011;22678;52.052;4.242;2023-02-28T09:29:29;7.57;;;3.20;;
36691;SDS011;22678;52.052;4.242;2023-02-28T09:31:56;6.40;;;3.10;;
36691;SDS011;22678;52.052;4.242;2023-02-28T09:34:23;5.23;;;2.50;;
36691;SDS011;22678;52.052;4.242;2023-02-28T09:36:49;4.73;;;2.93;;
36691;SDS011;22678;52.052;4.242;2023-02-28T09:39:18;4.93;;;2.20;;
36691;SDS011;22678;52.052;4.242;2023-02-28T09:41:47;4.57;;;1.73;;
36691;SDS011;22678;52.052;4.242;2023-02-28T09:49:37;7.00;;;3.47;;
36691;SDS011;22678;52.052;4.242;2023-02-28T09:52:12;3.07;;;1.73;;
36691;SDS011;22678;52.052;4.242;2023-02-28T09:54:41;7.27;;;2.30;;
36691;SDS011;22678;52.052;4.242;2023-02-28T10:00:14;5.70;;;2.00;;
36691;SDS011;22678;52.052;4.242;2023-02-28T10:05:24;6.63;;;1.90;;
36691;SDS011;22678;52.052;4.242;2023-02-28T10:10:54;5.53;;;1.27;;
36691;SDS011;22678;52.052;4.242;2023-02-28T10:13:35;5.93;;;1.53;;
36691;SDS011;22678;52.052;4.242;2023-02-28T10:16:14;3.60;;;0.80;;
36691;SDS011;22678;52.052;4.242;2023-02-28T10:18:47;2.77;;;1.07;;
36691;SDS011;22678;52.052;4.242;2023-02-28T10:21:20;5.13;;;1.77;;
36691;SDS011;22678;52.052;4.242;2023-02-28T10:23:49;4.70;;;1.98;;
36691;SDS011;22678;52.052;4.242;2023-02-28T10:26:23;5.20;;;1.03;;
36691;SDS011;22678;52.052;4.242;2023-02-28T10:28:53;5.23;;;2.03;;
36691;SDS011;22678;52.052;4.242;2023-02-28T10:31:19;2.77;;;1.13;;
36691;SDS011;22678;52.052;4.242;2023-02-28T10:33:44;3.07;;;1.00;;
36691;SDS011;22678;52.052;4.242;2023-02-28T10:36:14;2.73;;;1.30;;
36691;SDS011;22678;52.052;4.242;2023-02-28T10:38:42;5.63;;;1.73;;
36691;SDS011;22678;52.052;4.242;2023-02-28T10:41:30;4.10;;;1.17;;
36691;SDS011;22678;52.052;4.242;2023-02-28T10:44:20;1.77;;;0.77;;
36691;SDS011;22678;52.052;4.242;2023-02-28T10:46:47;2.80;;;0.80;;
36691;SDS011;22678;52.052;4.242;2023-02-28T10:49:15;3.47;;;1.27;;
36691;SDS011;22678;52.052;4.242;2023-02-28T10:51:44;2.13;;;0.97;;
36691;SDS011;22678;52.052;4.242;2023-02-28T10:54:45;7.23;;;0.93;;
36691;SDS011;22678;52.052;4.242;2023-02-28T10:57:15;2.83;;;1.17;;
36691;SDS011;22678;52.052;4.242;2023-02-28T10:59:44;3.13;;;0.97;;
36691;SDS011;22678;52.052;4.242;2023-02-28T11:05:02;2.75;;;1.17;;
36691;SDS011;22678;52.052;4.242;2023-02-28T11:07:51;5.63;;;1.37;;
36691;SDS011;22678;52.052;4.242;2023-02-28T11:10:19;5.60;;;2.03;;
36691;SDS011;22678;52.052;4.242;2023-02-28T11:12:47;2.00;;;0.63;;
36691;SDS011;22678;52.052;4.242;2023-02-28T11:15:26;1.90;;;0.80;;
36691;SDS011;22678;52.052;4.242;2023-02-28T11:17:58;2.53;;;0.93;;
36691;SDS011;22678;52.052;4.242;2023-02-28T11:20:28;3.83;;;0.60;;
36691;SDS011;22678;52.052;4.242;2023-02-28T11:22:55;3.07;;;0.83;;
36691;SDS011;22678;52.052;4.242;2023-02-28T11:27:59;2.27;;;0.83;;
36691;SDS011;22678;52.052;4.242;2023-02-28T11:30:40;2.33;;;1.00;;
36691;SDS011;22678;52.052;4.242;2023-02-28T11:33:20;3.00;;;0.80;;
36691;SDS011;22678;52.052;4.242;2023-02-28T11:35:46;2.77;;;0.60;;
36691;SDS011;22678;52.052;4.242;2023-02-28T11:38:14;3.10;;;1.10;;
36691;SDS011;22678;52.052;4.242;2023-02-28T11:40:54;2.50;;;0.63;;
36691;SDS011;22678;52.052;4.242;2023-02-28T11:49:35;1.93;;;0.73;;
36691;SDS011;22678;52.052;4.242;2023-02-28T11:55:01;2.23;;;0.97;;
36691;SDS011;22678;52.052;4.242;2023-02-28T11:57:49;2.90;;;0.40;;
36691;SDS011;22678;52.052;4.242;2023-02-28T12:16:50;2.10;;;1.20;;
36691;SDS011;22678;52.052;4.242;2023-02-28T12:27:02;4.33;;;0.70;;
36691;SDS011;22678;52.052;4.242;2023-02-28T12:29:38;5.60;;;1.58;;
36691;SDS011;22678;52.052;4.242;2023-02-28T12:32:15;2.73;;;0.93;;
36691;SDS011;22678;52.052;4.242;2023-02-28T12:34:48;1.95;;;0.57;;
36691;SDS011;22678;52.052;4.242;2023-02-28T12:37:31;3.25;;;1.70;;
36691;SDS011;22678;52.052;4.242;2023-02-28T12:40:05;2.37;;;0.90;;
36691;SDS011;22678;52.052;4.242;2023-02-28T12:42:37;2.47;;;0.80;;
36691;SDS011;22678;52.052;4.242;2023-02-28T12:45:25;3.30;;;1.13;;
36691;SDS011;22678;52.052;4.242;2023-02-28T12:48:04;1.63;;;0.67;;
36691;SDS011;22678;52.052;4.242;2023-02-28T12:50:32;2.20;;;0.80;;
36691;SDS011;22678;52.052;4.242;2023-02-28T13:01:01;3.10;;;0.90;;
36691;SDS011;22678;52.052;4.242;2023-02-28T13:03:33;1.80;;;0.63;;
36691;SDS011;22678;52.052;4.242;2023-02-28T13:16:59;4.57;;;1.00;;
36691;SDS011;22678;52.052;4.242;2023-02-28T13:19:28;3.20;;;1.27;;
36691;SDS011;22678;52.052;4.242;2023-02-28T13:21:56;3.80;;;1.13;;
36691;SDS011;22678;52.052;4.242;2023-02-28T13:25:13;8.70;;;1.60;;
36691;SDS011;22678;52.052;4.242;2023-02-28T13:30:00;1.93;;;0.80;;
36691;SDS011;22678;52.052;4.242;2023-02-28T13:32:46;2.90;;;0.80;;
36691;SDS011;22678;52.052;4.242;2023-02-28T13:35:35;4.13;;;0.80;;
36691;SDS011;22678;52.052;4.242;2023-02-28T13:38:09;2.37;;;0.80;;
36691;SDS011;22678;52.052;4.242;2023-02-28T13:40:41;2.43;;;1.37;;
36691;SDS011;22678;52.052;4.242;2023-02-28T13:43:07;5.80;;;1.60;;
36691;SDS011;22678;52.052;4.242;2023-02-28T13:45:33;2.17;;;0.77;;
36691;SDS011;22678;52.052;4.242;2023-02-28T13:48:17;2.20;;;0.70;;
36691;SDS011;22678;52.052;4.242;2023-02-28T13:50:44;3.43;;;0.60;;
36691;SDS011;22678;52.052;4.242;2023-02-28T14:06:37;4.03;;;1.10;;
36691;SDS011;22678;52.052;4.242;2023-02-28T14:11:43;2.67;;;0.97;;
36691;SDS011;22678;52.052;4.242;2023-02-28T14:14:09;4.27;;;1.20;;
36691;SDS011;22678;52.052;4.242;2023-02-28T14:17:04;2.17;;;0.70;;
36691;SDS011;22678;52.052;4.242;2023-02-28T14:19:34;3.92;;;1.45;;
36691;SDS011;22678;52.052;4.242;2023-02-28T14:27:41;2.73;;;1.60;;
36691;SDS011;22678;52.052;4.242;2023-02-28T14:30:26;3.57;;;0.97;;
36691;SDS011;22678;52.052;4.242;2023-02-28T14:33:05;3.57;;;0.83;;
36691;SDS011;22678;52.052;4.242;2023-02-28T14:38:49;2.93;;;0.70;;
36691;SDS011;22678;52.052;4.242;2023-02-28T14:41:22;2.40;;;1.20;;
36691;SDS011;22678;52.052;4.242;2023-02-28T14:43:58;2.23;;;1.00;;
36691;SDS011;22678;52.052;4.242;2023-02-28T14:46:38;2.17;;;0.77;;
36691;SDS011;22678;52.052;4.242;2023-02-28T14:49:05;5.47;;;0.77;;
36691;SDS011;22678;52.052;4.242;2023-02-28T14:51:36;3.00;;;0.83;;
36691;SDS011;22678;52.052;4.242;2023-02-28T14:54:02;3.47;;;1.37;;
36691;SDS011;22678;52.052;4.242;2023-02-28T14:56:36;2.57;;;1.13;;
36691;SDS011;22678;52.052;4.242;2023-02-28T14:59:03;3.40;;;0.70;;
36691;SDS011;22678;52.052;4.242;2023-02-28T15:01:30;2.13;;;0.57;;
36691;SDS011;22678;52.052;4.242;2023-02-28T15:04:02;3.53;;;0.77;;
36691;SDS011;22678;52.052;4.242;2023-02-28T15:06:30;1.75;;;0.80;;
36691;SDS011;22678;52.052;4.242;2023-02-28T15:09:06;2.50;;;0.93;;
36691;SDS011;22678;52.052;4.242;2023-02-28T15:11:44;1.00;;;0.77;;
36691;SDS011;22678;52.052;4.242;2023-02-28T15:14:21;2.53;;;0.80;;
36691;SDS011;22678;52.052;4.242;2023-02-28T15:16:49;3.17;;;1.90;;
36691;SDS011;22678;52.052;4.242;2023-02-28T15:19:25;2.47;;;1.57;;
36691;SDS011;22678;52.052;4.242;2023-02-28T15:22:14;3.13;;;1.10;;
36691;SDS011;22678;52.052;4.242;2023-02-28T15:24:44;2.83;;;0.73;;
36691;SDS011;22678;52.052;4.242;2023-02-28T15:27:20;4.27;;;2.20;;
36691;SDS011;22678;52.052;4.242;2023-02-28T15:29:50;1.53;;;0.90;;
36691;SDS011;22678;52.052;4.242;2023-02-28T15:33:01;4.30;;;1.03;;
36691;SDS011;22678;52.052;4.242;2023-02-28T15:35:27;1.70;;;0.70;;
36691;SDS011;22678;52.052;4.242;2023-02-28T15:38:17;1.37;;;0.50;;
36691;SDS011;22678;52.052;4.242;2023-02-28T15:40:55;2.43;;;0.70;;
36691;SDS011;22678;52.052;4.242;2023-02-28T15:46:01;2.27;;;0.90;;
36691;SDS011;22678;52.052;4.242;2023-02-28T15:48:51;3.30;;;1.00;;
36691;SDS011;22678;52.052;4.242;2023-02-28T15:51:19;3.33;;;1.00;;
36691;SDS011;22678;52.052;4.242;2023-02-28T15:53:48;1.73;;;0.60;;
36691;SDS011;22678;52.052;4.242;2023-02-28T15:56:32;1.83;;;1.13;;
36691;SDS011;22678;52.052;4.242;2023-02-28T15:59:04;2.23;;;0.97;;
36691;SDS011;22678;52.052;4.242;2023-02-28T16:01:33;2.15;;;0.80;;
36691;SDS011;22678;52.052;4.242;2023-02-28T16:04:04;2.70;;;0.77;;
36691;SDS011;22678;52.052;4.242;2023-02-28T16:07:01;2.10;;;0.70;;
36691;SDS011;22678;52.052;4.242;2023-02-28T16:09:25;3.00;;;1.20;;
36691;SDS011;22678;52.052;4.242;2023-02-28T16:11:52;2.90;;;0.90;;
36691;SDS011;22678;52.052;4.242;2023-02-28T16:14:21;2.63;;;0.90;;
36691;SDS011;22678;52.052;4.242;2023-02-28T16:16:49;2.80;;;1.03;;
36691;SDS011;22678;52.052;4.242;2023-02-28T16:19:19;3.90;;;0.90;;
36691;SDS011;22678;52.052;4.242;2023-02-28T16:21:45;3.23;;;0.93;;
36691;SDS011;22678;52.052;4.242;2023-02-28T16:24:11;6.23;;;1.63;;
36691;SDS011;22678;52.052;4.242;2023-02-28T16:26:36;11.03;;;2.13;;
36691;SDS011;22678;52.052;4.242;2023-02-28T16:29:05;5.00;;;1.30;;
36691;SDS011;22678;52.052;4.242;2023-02-28T16:31:33;5.67;;;1.00;;
36691;SDS011;22678;52.052;4.242;2023-02-28T16:34:02;3.30;;;1.40;;
36691;SDS011;22678;52.052;4.242;2023-02-28T16:36:28;3.07;;;1.00;;
36691;SDS011;22678;52.052;4.242;2023-02-28T16:38:54;2.33;;;0.90;;
36691;SDS011;22678;52.052;4.242;2023-02-28T16:41:24;5.77;;;1.67;;
36691;SDS011;22678;52.052;4.242;2023-02-28T16:43:52;4.47;;;1.10;;
36691;SDS011;22678;52.052;4.242;2023-02-28T16:46:23;3.25;;;1.55;;
36691;SDS011;22678;52.052;4.242;2023-02-28T16:48:52;5.83;;;0.90;;
36691;SDS011;22678;52.052;4.242;2023-02-28T16:51:17;3.57;;;0.97;;
36691;SDS011;22678;52.052;4.242;2023-02-28T16:53:43;6.03;;;2.70;;
36691;SDS011;22678;52.052;4.242;2023-02-28T16:56:17;9.30;;;4.03;;
36691;SDS011;22678;52.052;4.242;2023-02-28T16:58:48;2.73;;;0.93;;
36691;SDS011;22678;52.052;4.242;2023-02-28T17:01:14;3.13;;;1.20;;
36691;SDS011;22678;52.052;4.242;2023-02-28T17:03:40;3.40;;;1.30;;
36691;SDS011;22678;52.052;4.242;2023-02-28T17:06:12;2.67;;;0.87;;
36691;SDS011;22678;52.052;4.242;2023-02-28T17:08:43;1.87;;;0.70;;
36691;SDS011;22678;52.052;4.242;2023-02-28T17:11:08;5.20;;;0.90;;
36691;SDS011;22678;52.052;4.242;2023-02-28T17:13:34;2.17;;;0.70;;
36691;SDS011;22678;52.052;4.242;2023-02-28T17:15:59;6.43;;;1.23;;
36691;SDS011;22678;52.052;4.242;2023-02-28T17:18:25;2.37;;;1.60;;